Terminal Aerodrome Forecast
Issued by NWS

Home | Current Version | Previous Version | Text Only | Print | Product List | Glossary On
Versions: 1 2 3 4 5 6 7 8 9 10 11 12 13
000
FTUS43 KOAX 291700
TAFBFF
TAF
KBFF 291724Z 2918/3018 VRB05KT P6SM SCT007 OVC015
     FM291900 09010KT P6SM SCT020 OVC050
     FM292100 08011KT P6SM VCTS OVC040CB
     FM300000 10006KT 4SM -TSRA SCT025CB OVC040
     FM300600 VRB04KT P6SM -SHRA SCT040 BKN060=

USA.gov is the U.S. government's official web portal to all federal, state and local government web resources and services.